Weather at Frankfurt am Main Airport

Public forecast

Using degrees Celsius for public forecast. Weather courtesy of forecast.io.

Current aviation weather report (METAR) for Frankfurt am Main Airport

Retrieved 2021/10/22 06:20 UTC (9 minutes ago):

EDDF 220620Z 14003KT 090V170 9999 FEW025 02/02 Q1018 NOSIG

Aviation forecast (TAF) for Frankfurt am Main Airport

Retrieved 2021/10/22 06:27 UTC (2 minutes ago):

TAF TAF EDDF 220500Z 2206/2312 21007KT 9999 SCT030 BECMG 2209/2211 25015G25KT BKN045 BECMG 2215/2218 23009KT BECMG 2221/2224 19003KT